Time;durP1;ratioP1;P1;durP2;ratioP2;P2;SDS_P1;SDS_P2;PMS_P1;PMS_P2;Temp;Humidity;BMP_temperature;BMP_pressure;BME280_temperature;BME280_humidity;BME280_pressure;Samples;Min_cycle;Max_cycle;Signal;HPM_P1;HPM_P2
2023/03/11 00:02:09;;;;;;;1.30;1.00;;;;;;;6.82;45.56;96376.34;5049111;28;20200;-70
2023/03/11 00:04:34;;;;;;;1.93;1.30;;;;;;;6.89;45.02;96382.59;5053688;28;20697;-69
2023/03/11 00:07:00;;;;;;;1.20;1.07;;;;;;;6.84;45.01;96383.03;5052951;28;20417;-70
2023/03/11 00:09:25;;;;;;;2.87;1.40;;;;;;;6.88;44.96;96383.56;5051167;28;20214;-70
2023/03/11 00:11:51;;;;;;;1.20;1.10;;;;;;;6.90;44.58;96382.47;5059126;28;20685;-69
2023/03/11 00:14:16;;;;;;;1.70;1.30;;;;;;;6.83;45.18;96386.59;5050507;28;20578;-68
2023/03/11 00:16:41;;;;;;;1.47;1.30;;;;;;;6.84;45.72;96377.84;5047641;28;20273;-68
2023/03/11 00:19:09;;;;;;;2.03;1.30;;;;;;;6.76;45.66;96389.00;5051874;28;20252;-67
2023/03/11 00:21:34;;;;;;;2.10;1.37;;;;;;;6.74;46.21;96382.31;5058115;28;20174;-68
2023/03/11 00:24:02;;;;;;;1.97;1.40;;;;;;;6.68;45.77;96398.53;5052319;28;20440;-67
2023/03/11 00:26:27;;;;;;;2.17;1.43;;;;;;;6.65;46.63;96391.81;5047331;28;20175;-69
2023/03/11 00:28:54;;;;;;;2.80;1.33;;;;;;;6.44;46.00;96395.50;5049444;28;20919;-68
2023/03/11 00:31:20;;;;;;;2.10;1.40;;;;;;;6.52;46.57;96396.56;5045219;28;20187;-69
2023/03/11 00:33:45;;;;;;;1.77;1.20;;;;;;;6.63;46.39;96403.34;5052579;28;20507;-70
2023/03/11 00:36:21;;;;;;;1.30;1.20;;;;;;;6.51;46.55;96393.16;5056500;28;20206;-70
2023/03/11 00:38:47;;;;;;;3.50;1.20;;;;;;;6.47;46.44;96391.78;5058322;28;20264;-70
2023/03/11 00:41:12;;;;;;;1.43;1.33;;;;;;;6.32;47.06;96388.88;5050214;28;20915;-70
2023/03/11 00:43:38;;;;;;;1.50;1.40;;;;;;;6.44;47.26;96403.31;5054471;28;20201;-70
2023/03/11 00:46:04;;;;;;;1.90;1.30;;;;;;;6.55;47.14;96411.88;5049619;28;20198;-69
2023/03/11 00:48:30;;;;;;;3.83;2.60;;;;;;;6.58;46.82;96409.81;5061935;28;20190;-68
2023/03/11 00:50:55;;;;;;;2.40;1.23;;;;;;;6.55;47.17;96410.09;5050194;28;20421;-69
2023/03/11 00:53:21;;;;;;;1.90;1.40;;;;;;;6.49;46.87;96405.50;5043111;28;20179;-69
2023/03/11 00:55:46;;;;;;;3.03;1.30;;;;;;;6.54;47.42;96421.50;5053156;28;20313;-70
2023/03/11 00:58:12;;;;;;;2.63;1.70;;;;;;;6.61;46.94;96414.72;5041947;28;20194;-69
2023/03/11 01:00:38;;;;;;;3.03;1.60;;;;;;;6.60;46.68;96418.28;5049394;28;20648;-69
2023/03/11 01:03:03;;;;;;;2.53;1.80;;;;;;;6.70;47.28;96427.81;5048524;28;20183;-69
2023/03/11 01:05:31;;;;;;;1.83;1.50;;;;;;;6.77;47.25;96428.88;5050802;28;20240;-68
2023/03/11 01:07:57;;;;;;;3.73;1.80;;;;;;;6.83;47.20;96430.09;5049301;28;20187;-68
2023/03/11 01:10:22;;;;;;;2.30;1.27;;;;;;;6.85;47.07;96431.56;5049588;28;20418;-68
2023/03/11 01:12:48;;;;;;;1.87;1.57;;;;;;;6.88;47.38;96433.03;5049872;28;20421;-68
2023/03/11 01:15:22;;;;;;;2.07;1.43;;;;;;;6.91;47.12;96430.16;5044529;28;20573;-69
2023/03/11 01:17:48;;;;;;;1.63;1.50;;;;;;;6.89;46.69;96437.28;5049305;28;20666;-69
2023/03/11 01:20:14;;;;;;;1.77;1.67;;;;;;;6.89;46.94;96432.91;5059676;28;20452;-68
2023/03/11 01:22:39;;;;;;;2.17;1.80;;;;;;;6.88;47.61;96436.50;5057729;28;20573;-69
2023/03/11 01:25:05;;;;;;;1.53;1.43;;;;;;;6.79;47.03;96429.56;5052796;28;20270;-68
2023/03/11 01:27:31;;;;;;;4.87;1.80;;;;;;;6.60;47.18;96431.31;5059695;28;20268;-70
2023/03/11 01:29:56;;;;;;;2.10;1.77;;;;;;;6.64;47.19;96434.44;5054805;28;20473;-71
2023/03/11 01:32:22;;;;;;;1.77;1.60;;;;;;;6.60;47.20;96435.72;5052332;28;20281;-71
2023/03/11 01:34:47;;;;;;;2.53;1.70;;;;;;;6.51;47.61;96437.41;5056456;28;20209;-69
2023/03/11 01:37:13;;;;;;;2.33;1.70;;;;;;;6.56;47.16;96429.97;5053806;28;20336;-70
2023/03/11 01:39:39;;;;;;;1.93;1.73;;;;;;;6.52;47.01;96433.84;5050174;28;20199;-69
2023/03/11 01:42:04;;;;;;;1.40;1.20;;;;;;;6.37;46.05;96451.69;5048968;28;20425;-69
2023/03/11 01:44:31;;;;;;;2.40;1.47;;;;;;;6.34;45.92;96454.63;5048198;28;20219;-69
2023/03/11 01:46:58;;;;;;;3.47;1.50;;;;;;;6.33;46.00;96431.31;5056370;28;20505;-70
2023/03/11 01:49:24;;;;;;;2.43;1.37;;;;;;;6.33;45.97;96433.91;5050002;28;20635;-69
2023/03/11 01:51:51;;;;;;;2.00;1.80;;;;;;;6.26;45.66;96437.13;5048944;28;20468;-69
2023/03/11 01:54:27;;;;;;;1.33;1.23;;;;;;;6.23;46.16;96432.19;5057839;28;20202;-69
2023/03/11 01:56:53;;;;;;;2.67;1.80;;;;;;;6.24;46.14;96435.59;5040479;28;20981;-69
2023/03/11 01:59:23;;;;;;;3.10;1.47;;;;;;;6.30;46.29;96433.25;5048604;28;20465;-69
2023/03/11 02:02:14;;;;;;;6.33;1.83;;;;;;;6.19;46.24;96430.03;5053267;28;20186;-69
2023/03/11 02:04:40;;;;;;;2.90;1.70;;;;;;;6.18;45.94;96433.59;5045585;28;20436;-69
2023/03/11 02:07:07;;;;;;;2.00;1.80;;;;;;;6.11;46.03;96438.53;5053194;28;20436;-69
2023/03/11 02:09:33;;;;;;;2.90;2.03;;;;;;;6.11;45.98;96446.34;5051835;28;20916;-69
2023/03/11 02:11:58;;;;;;;5.53;1.40;;;;;;;6.15;46.06;96442.50;5044684;28;20455;-69
2023/03/11 02:14:24;;;;;;;3.70;1.90;;;;;;;6.10;45.98;96444.72;5056218;28;20671;-69
2023/03/11 02:16:50;;;;;;;4.43;1.67;;;;;;;5.89;45.93;96461.31;5052823;28;20608;-68
2023/03/11 02:19:52;;;;;;;1.40;1.10;;;;;;;5.95;45.83;96452.13;5056677;28;20454;-69
2023/03/11 02:22:18;;;;;;;3.10;1.67;;;;;;;6.07;46.08;96461.44;5048617;28;20182;-68
2023/03/11 02:24:54;;;;;;;1.50;1.40;;;;;;;6.08;46.23;96446.63;5048825;28;20453;-69
2023/03/11 02:27:20;;;;;;;3.27;1.30;;;;;;;6.03;46.21;96467.88;5044084;28;20422;-69
2023/03/11 02:29:48;;;;;;;1.77;1.67;;;;;;;6.08;46.37;96434.44;5051507;28;20425;-70
2023/03/11 02:32:15;;;;;;;2.23;1.77;;;;;;;6.16;46.27;96457.16;5045789;28;20465;-69
2023/03/11 02:34:40;;;;;;;5.23;1.70;;;;;;;6.12;46.10;96454.00;5060625;28;20436;-68
2023/03/11 02:37:08;;;;;;;2.23;1.67;;;;;;;6.23;46.06;96465.22;5064952;28;20421;-68
2023/03/11 02:39:42;;;;;;;1.93;1.33;;;;;;;6.23;45.65;96457.41;5053906;28;20453;-69
2023/03/11 02:42:12;;;;;;;2.83;1.33;;;;;;;6.16;45.03;96467.56;5056797;28;20909;-68
2023/03/11 02:44:39;;;;;;;2.60;1.87;;;;;;;6.18;45.33;96485.63;5051993;28;20529;-69
2023/03/11 02:47:05;;;;;;;2.70;1.60;;;;;;;6.23;45.08;96484.22;5054116;28;20430;-68
2023/03/11 02:49:31;;;;;;;3.13;1.53;;;;;;;6.22;45.03;96494.78;5053191;28;20825;-68
2023/03/11 02:51:56;;;;;;;2.03;1.63;;;;;;;6.18;44.89;96496.84;5048531;28;20489;-69
2023/03/11 02:54:22;;;;;;;3.10;1.50;;;;;;;6.10;44.25;96505.38;5047978;28;20293;-68
2023/03/11 02:56:47;;;;;;;3.00;1.40;;;;;;;6.04;44.56;96476.50;5049296;28;20175;-68
2023/03/11 02:59:12;;;;;;;3.90;1.63;;;;;;;6.00;44.35;96468.13;5047872;28;20774;-69
2023/03/11 03:01:38;;;;;;;2.77;1.33;;;;;;;6.00;44.75;96483.75;5045371;28;20721;-69
2023/03/11 03:04:03;;;;;;;1.30;1.20;;;;;;;5.99;43.96;96485.53;5055660;28;20632;-69
2023/03/11 03:06:29;;;;;;;1.40;1.10;;;;;;;5.99;43.86;96487.28;5047130;28;20202;-69
2023/03/11 03:08:54;;;;;;;4.23;1.40;;;;;;;5.99;43.98;96508.09;5043484;28;20175;-68
2023/03/11 03:11:20;;;;;;;3.20;1.23;;;;;;;5.96;43.87;96495.38;5058029;28;20225;-68
2023/03/11 03:13:45;;;;;;;4.13;1.50;;;;;;;5.95;43.77;96486.75;5050949;28;20234;-70
2023/03/11 03:16:11;;;;;;;2.70;1.20;;;;;;;5.94;43.23;96492.91;5036190;28;20347;-70
2023/03/11 03:18:37;;;;;;;1.73;1.57;;;;;;;5.91;43.46;96506.22;5053212;28;20203;-69
2023/03/11 03:21:02;;;;;;;2.90;1.50;;;;;;;5.82;43.60;96497.47;5051809;28;20191;-69
2023/03/11 03:23:28;;;;;;;2.87;1.70;;;;;;;5.83;43.77;96503.47;5042523;28;20420;-69
2023/03/11 03:25:53;;;;;;;1.53;1.20;;;;;;;5.82;43.63;96496.63;5039565;28;20175;-68
2023/03/11 03:28:19;;;;;;;2.53;1.30;;;;;;;5.80;43.83;96488.13;5057793;28;20844;-69
2023/03/11 03:30:44;;;;;;;2.20;1.47;;;;;;;5.75;44.25;96490.34;5051057;28;20218;-70
2023/03/11 03:33:10;;;;;;;5.33;1.53;;;;;;;5.68;44.33;96485.69;5056004;28;20268;-70
2023/03/11 03:35:40;;;;;;;3.23;1.60;;;;;;;5.66;44.70;96495.44;5051014;28;20281;-69
2023/03/11 03:38:05;;;;;;;1.57;1.00;;;;;;;5.67;44.16;96497.06;5048398;28;20182;-70
2023/03/11 03:40:31;;;;;;;1.90;0.93;;;;;;;5.71;44.73;96499.38;5044876;28;20541;-69
2023/03/11 03:42:56;;;;;;;3.13;1.47;;;;;;;5.73;44.33;96513.06;5047196;28;20225;-68
2023/03/11 03:45:22;;;;;;;1.47;1.20;;;;;;;5.67;44.73;96515.25;5065415;28;20229;-68
2023/03/11 03:47:47;;;;;;;2.90;1.37;;;;;;;5.65;44.71;96517.19;5050899;28;20247;-68
2023/03/11 03:50:12;;;;;;;5.20;1.57;;;;;;;5.71;45.47;96520.19;5049940;28;20222;-67
2023/03/11 03:52:38;;;;;;;2.23;1.30;;;;;;;5.69;44.97;96515.94;5040263;28;20187;-67
2023/03/11 03:55:04;;;;;;;2.30;1.23;;;;;;;5.72;44.82;96521.84;5040846;28;20191;-69
2023/03/11 03:57:30;;;;;;;2.63;1.50;;;;;;;5.64;44.90;96525.94;5050906;28;20267;-70
2023/03/11 03:59:56;;;;;;;1.60;1.30;;;;;;;5.60;45.18;96532.38;5050124;28;20543;-68
2023/03/11 04:02:21;;;;;;;6.73;1.47;;;;;;;5.67;44.73;96530.84;5056559;28;20270;-68
2023/03/11 04:04:47;;;;;;;2.33;1.30;;;;;;;5.71;44.98;96531.41;5058291;28;20210;-68
2023/03/11 04:07:12;;;;;;;5.40;1.50;;;;;;;5.74;45.02;96535.53;5037021;28;20242;-68
2023/03/11 04:09:42;;;;;;;2.10;1.27;;;;;;;5.65;44.88;96534.56;5051651;28;20182;-68
2023/03/11 04:12:12;;;;;;;1.77;1.20;;;;;;;5.51;44.82;96541.81;5051067;28;20175;-70
2023/03/11 04:14:37;;;;;;;2.20;1.13;;;;;;;5.49;45.04;96548.13;5019802;28;20504;-69
2023/03/11 04:17:03;;;;;;;4.30;1.33;;;;;;;5.45;44.95;96544.13;5053670;28;20553;-68
2023/03/11 04:19:28;;;;;;;3.30;1.50;;;;;;;5.50;44.84;96552.34;5060789;28;20195;-69
2023/03/11 04:21:53;;;;;;;2.10;1.27;;;;;;;5.54;45.09;96548.53;5046693;28;20204;-69
2023/03/11 04:24:19;;;;;;;3.00;1.40;;;;;;;5.53;44.64;96552.09;5049712;28;20245;-68
2023/03/11 04:26:44;;;;;;;4.63;1.40;;;;;;;5.52;45.25;96540.06;5046289;28;20714;-69
2023/03/11 04:29:10;;;;;;;6.03;1.53;;;;;;;5.51;44.87;96548.81;5051153;28;20266;-69
2023/03/11 04:31:35;;;;;;;5.50;1.60;;;;;;;5.48;45.45;96544.69;5049377;28;20195;-70
2023/03/11 04:34:01;;;;;;;3.87;1.40;;;;;;;5.33;45.67;96539.06;5045553;28;20204;-69
2023/03/11 04:36:26;;;;;;;3.27;1.30;;;;;;;5.38;45.59;96551.66;5038660;28;20187;-70
2023/03/11 04:38:52;;;;;;;2.17;1.30;;;;;;;5.23;46.40;96546.03;5044407;28;20248;-69
2023/03/11 04:41:17;;;;;;;2.53;1.50;;;;;;;5.29;46.34;96548.13;5049234;28;20190;-69
2023/03/11 04:43:43;;;;;;;7.60;1.67;;;;;;;5.26;45.97;96550.13;5046352;28;20634;-68
2023/03/11 04:46:08;;;;;;;2.10;1.10;;;;;;;5.26;45.84;96543.19;5052315;28;20202;-69
2023/03/11 04:48:34;;;;;;;3.07;1.37;;;;;;;5.27;46.43;96539.63;5053241;28;20201;-69
2023/03/11 04:50:59;;;;;;;3.73;1.47;;;;;;;5.15;46.56;96553.69;5047014;28;20189;-70
2023/03/11 04:53:25;;;;;;;2.00;1.30;;;;;;;5.20;46.50;96554.09;5049915;28;20241;-69
2023/03/11 04:55:51;;;;;;;6.87;1.43;;;;;;;5.29;46.58;96545.50;5044773;28;20187;-68
2023/03/11 04:58:16;;;;;;;1.80;1.20;;;;;;;5.30;46.22;96547.13;5049323;28;20244;-68
2023/03/11 05:00:42;;;;;;;4.70;1.30;;;;;;;5.20;46.30;96547.13;5054558;28;20460;-70
2023/03/11 05:03:07;;;;;;;5.23;2.23;;;;;;;5.23;46.49;96551.25;5040356;28;20179;-70
2023/03/11 05:05:34;;;;;;;2.90;1.90;;;;;;;5.13;46.48;96553.00;5052151;28;20211;-68
2023/03/11 05:07:59;;;;;;;5.00;1.90;;;;;;;5.09;46.81;96555.06;5057367;28;20542;-69
2023/03/11 05:10:25;;;;;;;5.60;1.57;;;;;;;5.08;47.14;96551.63;5051462;28;20418;-69
2023/03/11 05:12:51;;;;;;;3.93;1.60;;;;;;;5.20;46.78;96554.94;5057514;28;20183;-70
2023/03/11 05:15:17;;;;;;;4.67;1.80;;;;;;;5.15;47.12;96556.28;5049312;28;20203;-69
2023/03/11 05:17:43;;;;;;;4.40;1.60;;;;;;;5.17;46.80;96560.38;5046000;28;20453;-69
2023/03/11 05:20:09;;;;;;;3.33;1.47;;;;;;;5.17;46.46;96562.16;5051538;28;20946;-69
2023/03/11 05:22:35;;;;;;;2.07;1.43;;;;;;;5.13;47.00;96561.59;5040482;28;20198;-68
2023/03/11 05:25:01;;;;;;;4.73;1.20;;;;;;;5.17;46.73;96575.13;5051791;28;20445;-68
2023/03/11 05:27:26;;;;;;;1.80;1.47;;;;;;;5.14;47.10;96560.66;5050978;28;20491;-69
2023/03/11 05:29:51;;;;;;;5.70;1.50;;;;;;;5.07;47.50;96575.13;5055635;28;20266;-69
2023/03/11 05:32:18;;;;;;;6.43;1.40;;;;;;;5.11;46.81;96581.69;5042232;28;20716;-69
2023/03/11 05:34:44;;;;;;;9.73;1.90;;;;;;;5.10;46.92;96579.25;5042022;28;20215;-69
2023/03/11 05:37:09;;;;;;;3.00;1.30;;;;;;;5.05;47.09;96588.25;5039139;28;20513;-69
2023/03/11 05:39:36;;;;;;;4.50;1.67;;;;;;;5.06;46.93;96587.28;5050765;28;20498;-69
2023/03/11 05:42:05;;;;;;;3.13;1.40;;;;;;;5.14;47.08;96596.22;5048871;28;20198;-70
2023/03/11 05:44:31;;;;;;;4.30;1.37;;;;;;;5.13;47.34;96594.56;5042211;28;20477;-70
2023/03/11 05:46:56;;;;;;;3.80;1.67;;;;;;;5.12;47.26;96598.13;5050372;28;20515;-68
2023/03/11 05:49:22;;;;;;;2.00;1.57;;;;;;;5.07;47.38;96583.75;5043705;28;20802;-68
2023/03/11 05:51:48;;;;;;;1.80;1.30;;;;;;;5.16;47.08;96581.31;5040111;28;20309;-68
2023/03/11 05:54:14;;;;;;;2.70;1.30;;;;;;;5.14;46.88;96572.84;5052214;28;20217;-68
2023/03/11 05:56:41;;;;;;;2.60;1.53;;;;;;;5.10;47.17;96579.25;5043305;28;20422;-69
2023/03/11 05:59:07;;;;;;;3.20;1.57;;;;;;;5.13;46.74;96584.19;5045207;28;20203;-70
2023/03/11 06:01:33;;;;;;;7.50;1.73;;;;;;;5.04;46.66;96585.78;5047265;28;20468;-68
2023/03/11 06:03:59;;;;;;;5.13;1.33;;;;;;;4.99;47.39;96585.34;5045997;28;21055;-70
2023/03/11 06:06:24;;;;;;;6.67;1.60;;;;;;;5.07;47.17;96593.31;5048428;28;20426;-68
2023/03/11 06:08:50;;;;;;;3.73;1.30;;;;;;;5.01;47.21;96589.47;5052401;28;20416;-68
2023/03/11 06:11:16;;;;;;;3.60;1.47;;;;;;;5.01;47.07;96596.44;5045523;28;20918;-67
2023/03/11 06:13:41;;;;;;;3.73;2.30;;;;;;;5.12;46.58;96596.31;5040943;28;20252;-68
2023/03/11 06:16:07;;;;;;;4.50;1.70;;;;;;;5.24;46.33;96591.84;5047918;28;20178;-69
2023/03/11 06:18:33;;;;;;;4.23;1.43;;;;;;;5.56;46.16;96593.38;5053833;28;20563;-69
2023/03/11 06:21:00;;;;;;;8.33;1.40;;;;;;;5.75;45.92;96589.97;5049393;28;20270;-68
2023/03/11 06:23:25;;;;;;;4.30;1.60;;;;;;;5.98;45.16;96590.53;5059603;28;20198;-69
2023/03/11 06:25:55;;;;;;;6.13;1.27;;;;;;;6.18;44.09;96597.50;5048240;28;20424;-69
2023/03/11 06:28:20;;;;;;;1.60;1.30;;;;;;;6.20;44.19;96595.59;5040724;28;20191;-69
2023/03/11 06:30:45;;;;;;;4.00;1.53;;;;;;;6.09;44.67;96599.16;5050480;28;20492;-69
2023/03/11 06:33:13;;;;;;;2.90;1.37;;;;;;;6.14;44.31;96604.78;5056815;28;20222;-69
2023/03/11 06:35:38;;;;;;;3.90;1.83;;;;;;;6.08;44.24;96606.16;5057543;28;20198;-70
2023/03/11 06:38:04;;;;;;;3.47;1.73;;;;;;;5.97;44.35;96601.88;5047108;28;20494;-69
2023/03/11 06:40:29;;;;;;;5.03;1.60;;;;;;;5.96;44.15;96626.25;5058663;28;20310;-69
2023/03/11 06:42:54;;;;;;;3.87;1.90;;;;;;;6.01;44.91;96630.25;5053384;28;20263;-69
2023/03/11 06:45:20;;;;;;;3.23;1.77;;;;;;;5.95;44.70;96632.41;5064504;28;20297;-72
2023/03/11 06:47:45;;;;;;;5.23;1.93;;;;;;;5.97;44.43;96640.91;5057170;28;20182;-69
2023/03/11 06:50:11;;;;;;;2.37;1.50;;;;;;;5.96;44.59;96641.03;5055668;28;20282;-69
2023/03/11 06:52:36;;;;;;;3.10;1.57;;;;;;;5.87;44.54;96649.66;5061398;28;20667;-68
2023/03/11 06:55:02;;;;;;;3.27;1.40;;;;;;;6.02;44.77;96655.31;5055148;28;20289;-69
2023/03/11 06:57:29;;;;;;;7.27;2.17;;;;;;;5.99;44.51;96654.63;5056259;28;20190;-69
2023/03/11 06:59:55;;;;;;;11.53;1.73;;;;;;;5.96;45.18;96647.06;5052832;28;20525;-69
2023/03/11 07:02:20;;;;;;;4.97;1.97;;;;;;;6.12;45.19;96654.34;5051094;28;20433;-68
2023/03/11 07:04:49;;;;;;;5.47;2.00;;;;;;;6.38;44.97;96655.56;5050702;28;20226;-67
2023/03/11 07:07:14;;;;;;;3.83;1.60;;;;;;;6.42;44.15;96655.13;5049834;28;20191;-69
2023/03/11 07:09:40;;;;;;;7.13;2.13;;;;;;;6.58;44.29;96658.94;5050025;28;20426;-69
2023/03/11 07:12:06;;;;;;;4.80;1.57;;;;;;;6.77;43.94;96650.28;5052947;28;20209;-69
2023/03/11 07:14:31;;;;;;;15.63;2.30;;;;;;;6.85;43.33;96671.22;5053217;28;20851;-69
2023/03/11 07:16:57;;;;;;;2.00;1.20;;;;;;;6.95;43.29;96667.75;5055682;28;20593;-69
2023/03/11 07:19:22;;;;;;;5.90;1.57;;;;;;;6.96;42.89;96674.59;5049721;28;20213;-68
2023/03/11 07:21:47;;;;;;;4.73;1.90;;;;;;;7.11;42.91;96669.75;5047680;28;20210;-69
2023/03/11 07:24:13;;;;;;;4.50;1.70;;;;;;;7.19;42.11;96673.28;5048154;28;20241;-68
2023/03/11 07:26:39;;;;;;;10.17;1.77;;;;;;;7.11;42.67;96673.19;5055807;28;20180;-68
2023/03/11 07:29:04;;;;;;;3.73;1.53;;;;;;;7.10;42.30;96671.53;5049923;28;20187;-68
2023/03/11 07:31:32;;;;;;;5.00;1.40;;;;;;;7.11;42.06;96670.56;5039152;28;20430;-68
2023/03/11 07:34:00;;;;;;;5.07;1.70;;;;;;;7.21;41.45;96675.75;5052935;28;20289;-69
2023/03/11 07:36:26;;;;;;;3.90;1.50;;;;;;;7.23;42.11;96679.84;5051119;28;20471;-69
2023/03/11 07:39:01;;;;;;;5.60;1.77;;;;;;;7.21;41.49;96686.97;5051710;28;20454;-69
2023/03/11 07:41:27;;;;;;;5.27;2.10;;;;;;;7.17;42.16;96695.25;5035096;28;20909;-69
2023/03/11 07:43:54;;;;;;;3.87;1.50;;;;;;;7.16;41.75;96694.44;5059211;28;20440;-69
2023/03/11 07:46:21;;;;;;;6.40;2.17;;;;;;;7.17;41.46;96690.03;5033929;28;20422;-69
2023/03/11 07:48:47;;;;;;;4.07;1.10;;;;;;;7.18;41.84;96689.06;5035213;28;20409;-68
2023/03/11 07:51:34;;;;;;;6.60;1.70;;;;;;;7.17;42.10;96690.88;5044281;28;20938;-69
2023/03/11 07:54:00;;;;;;;6.97;1.90;;;;;;;7.22;42.41;96693.03;5036918;28;20457;-68
2023/03/11 07:56:28;;;;;;;7.90;1.80;;;;;;;7.26;42.06;96698.78;5050392;28;20974;-68
2023/03/11 07:58:53;;;;;;;3.83;1.27;;;;;;;7.30;41.74;96707.97;5047960;28;20950;-68
2023/03/11 08:01:21;;;;;;;2.63;1.20;;;;;;;7.30;41.45;96707.97;5039144;28;20426;-68
2023/03/11 08:03:48;;;;;;;4.00;1.90;;;;;;;7.30;41.81;96706.16;5052808;28;20691;-68
2023/03/11 08:06:25;;;;;;;3.60;1.40;;;;;;;7.41;41.06;96707.75;5043144;28;20441;-70
2023/03/11 08:08:51;;;;;;;4.80;1.40;;;;;;;7.56;40.64;96709.91;5041144;28;20500;-69
2023/03/11 08:11:18;;;;;;;9.80;1.80;;;;;;;7.73;40.10;96701.28;5050656;28;20420;-70
2023/03/11 08:13:44;;;;;;;5.03;1.47;;;;;;;7.95;39.64;96705.25;5055952;28;20192;-70
2023/03/11 08:16:12;;;;;;;2.33;1.37;;;;;;;8.04;39.15;96702.72;5044659;28;20426;-69
2023/03/11 08:18:37;;;;;;;6.50;1.20;;;;;;;8.29;39.00;96703.78;5059680;28;20550;-70
2023/03/11 08:21:14;;;;;;;4.23;1.53;;;;;;;8.58;38.58;96715.78;5053351;28;20421;-70
2023/03/11 08:23:39;;;;;;;10.07;2.03;;;;;;;8.94;38.26;96710.50;5047153;28;20195;-70
2023/03/11 08:26:06;;;;;;;1.83;1.20;;;;;;;9.25;37.06;96710.00;5044802;28;20425;-69
2023/03/11 08:28:32;;;;;;;5.83;1.73;;;;;;;9.65;37.01;96710.31;5050901;28;20183;-70
2023/03/11 08:30:57;;;;;;;2.47;1.40;;;;;;;9.84;36.00;96711.84;5047080;28;20434;-70
2023/03/11 08:33:23;;;;;;;4.80;1.37;;;;;;;10.03;36.08;96713.34;5047869;28;20214;-70
2023/03/11 08:35:48;;;;;;;3.87;1.40;;;;;;;10.22;35.61;96712.22;5058454;28;20234;-70
2023/03/11 08:38:14;;;;;;;1.90;1.00;;;;;;;10.40;34.70;96722.59;5048659;28;20189;-70
2023/03/11 08:40:39;;;;;;;5.37;1.43;;;;;;;10.34;34.77;96719.78;5055683;28;20218;-70
2023/03/11 08:43:05;;;;;;;3.90;1.50;;;;;;;10.72;35.08;96722.75;5055227;28;20270;-70
2023/03/11 08:45:30;;;;;;;8.97;1.47;;;;;;;10.90;34.63;96728.66;5044894;28;20626;-70
2023/03/11 08:47:55;;;;;;;4.40;1.60;;;;;;;10.96;34.21;96724.53;5055071;28;20186;-71
2023/03/11 08:50:21;;;;;;;5.53;1.50;;;;;;;11.27;33.52;96728.25;5049500;28;20224;-71
2023/03/11 08:52:46;;;;;;;3.57;1.30;;;;;;;11.31;32.61;96729.56;5029161;28;20180;-72
2023/03/11 08:55:22;;;;;;;4.60;1.20;;;;;;;11.62;32.02;96731.41;5034692;28;20210;-70
2023/03/11 08:57:47;;;;;;;4.47;1.30;;;;;;;11.79;31.97;96725.09;5035770;28;20889;-70
2023/03/11 09:00:13;;;;;;;5.60;2.30;;;;;;;11.94;32.19;96729.63;5045261;28;20465;-70
2023/03/11 09:02:40;;;;;;;2.90;1.40;;;;;;;12.28;30.92;96721.41;5041689;28;20604;-70
2023/03/11 09:05:06;;;;;;;3.83;1.20;;;;;;;12.60;31.19;96718.72;5034074;28;20200;-71
2023/03/11 09:07:31;;;;;;;2.90;1.10;;;;;;;12.60;29.45;96716.88;5035429;28;20480;-70
2023/03/11 09:09:56;;;;;;;6.33;1.60;;;;;;;11.99;29.97;96732.56;5039774;28;20240;-70
2023/03/11 09:12:22;;;;;;;3.80;1.20;;;;;;;11.50;30.36;96734.41;5045870;28;20182;-69
2023/03/11 09:14:47;;;;;;;3.40;1.00;;;;;;;11.26;31.02;96732.69;5042314;28;20207;-70
2023/03/11 09:17:13;;;;;;;3.73;1.20;;;;;;;11.17;30.86;96737.13;5050892;28;20213;-71
2023/03/11 09:19:38;;;;;;;7.73;1.70;;;;;;;11.71;30.83;96747.94;5049263;28;20203;-70
2023/03/11 09:22:04;;;;;;;2.37;1.10;;;;;;;12.05;29.93;96745.03;5042344;28;20206;-71
2023/03/11 09:24:33;;;;;;;2.40;0.97;;;;;;;12.43;29.98;96750.38;5043188;28;20211;-70
2023/03/11 09:26:59;;;;;;;7.40;1.00;;;;;;;12.56;29.03;96751.59;5047869;28;20187;-71
2023/03/11 09:29:25;;;;;;;5.00;1.10;;;;;;;12.86;28.50;96746.41;5038268;28;20922;-71
2023/03/11 09:31:50;;;;;;;2.83;1.10;;;;;;;12.99;27.44;96753.69;5040089;28;20525;-69
2023/03/11 09:34:16;;;;;;;5.27;0.90;;;;;;;13.35;26.53;96745.13;5036297;28;20250;-69
2023/03/11 09:36:42;;;;;;;2.70;0.90;;;;;;;13.78;27.73;96744.50;5051305;28;20660;-70
2023/03/11 09:39:08;;;;;;;3.30;1.30;;;;;;;13.24;27.90;96743.75;5040316;28;20283;-71
2023/03/11 09:41:51;;;;;;;2.80;1.10;;;;;;;13.50;27.68;96734.63;5037779;28;20974;-70
2023/03/11 09:44:44;;;;;;;2.30;0.97;;;;;;;14.16;27.35;96743.53;5042991;28;20237;-70
2023/03/11 09:47:36;;;;;;;2.17;1.13;;;;;;;14.50;27.18;96736.75;5042365;28;20459;-70
2023/03/11 09:50:17;;;;;;;2.87;1.00;;;;;;;14.61;25.56;96740.72;5035248;28;20434;-69
2023/03/11 09:52:42;;;;;;;4.70;1.10;;;;;;;14.13;26.13;96752.59;5038980;28;20430;-71
2023/03/11 09:55:34;;;;;;;7.97;1.13;;;;;;;13.54;26.08;96754.31;5048633;28;20533;-71
2023/03/11 09:58:03;;;;;;;3.57;0.97;;;;;;;12.96;26.53;96749.63;5041463;28;20175;-70
2023/03/11 10:00:29;;;;;;;1.53;0.90;;;;;;;12.29;27.29;96743.22;5040565;28;20496;-70
2023/03/11 10:02:55;;;;;;;2.50;0.87;;;;;;;11.96;27.04;96748.66;5033273;28;20432;-69
2023/03/11 10:05:26;;;;;;;1.33;0.73;;;;;;;12.00;27.38;96749.97;5042508;28;20449;-71
2023/03/11 10:08:01;;;;;;;5.63;1.00;;;;;;;12.31;27.73;96757.03;5036584;28;20178;-71
2023/03/11 10:10:29;;;;;;;1.00;0.70;;;;;;;12.63;27.36;96746.44;5036978;28;20450;-69
2023/03/11 10:13:10;;;;;;;3.17;0.90;;;;;;;13.10;26.88;96740.09;5061262;28;20960;-70
2023/03/11 10:15:47;;;;;;;1.30;1.10;;;;;;;13.47;27.51;96741.06;5052610;28;20516;-69
2023/03/11 10:18:21;;;;;;;5.23;1.50;;;;;;;13.70;26.90;96752.50;5046575;28;20426;-69
2023/03/11 10:20:46;;;;;;;1.90;1.07;;;;;;;13.82;26.41;96748.41;5047237;28;20466;-69
2023/03/11 10:23:18;;;;;;;3.70;1.10;;;;;;;13.64;26.86;96754.84;5042439;28;20423;-70
2023/03/11 10:26:04;;;;;;;2.80;1.20;;;;;;;13.50;26.93;96745.97;5044851;28;20210;-71
2023/03/11 10:28:36;;;;;;;33.57;3.20;;;;;;;13.13;26.87;96750.28;5038121;28;20430;-70
2023/03/11 10:31:07;;;;;;;4.90;1.30;;;;;;;12.96;27.35;96765.41;5037394;28;20517;-70
2023/03/11 10:33:50;;;;;;;7.00;1.37;;;;;;;12.71;28.26;96757.72;5021660;28;20425;-69
2023/03/11 10:36:23;;;;;;;7.23;1.20;;;;;;;12.13;29.12;96758.09;5043683;28;20433;-71
2023/03/11 10:38:51;;;;;;;8.20;1.50;;;;;;;11.47;30.11;96757.53;5043394;28;20473;-71
2023/03/11 10:41:28;;;;;;;3.27;0.93;;;;;;;11.30;30.13;96751.53;5045569;28;20521;-70
2023/03/11 10:43:58;;;;;;;2.27;1.00;;;;;;;11.10;29.27;96751.88;5039890;28;20444;-70
2023/03/11 10:46:26;;;;;;;3.20;1.20;;;;;;;11.36;29.98;96748.22;5035371;28;20414;-71
2023/03/11 10:48:51;;;;;;;2.60;1.03;;;;;;;12.13;28.45;96738.91;5041177;28;20434;-68
2023/03/11 10:51:21;;;;;;;5.73;1.53;;;;;;;12.73;29.60;96732.03;5037372;28;20427;-71
2023/03/11 10:53:55;;;;;;;5.53;1.80;;;;;;;13.51;28.82;96733.63;5048057;28;20183;-70
2023/03/11 10:56:25;;;;;;;2.60;1.30;;;;;;;14.33;27.28;96723.00;5042782;28;20483;-70
2023/03/11 10:58:51;;;;;;;3.43;1.40;;;;;;;14.49;26.33;96737.75;5046591;28;20423;-71
2023/03/11 11:01:17;;;;;;;27.20;2.47;;;;;;;14.40;26.53;96739.69;5045384;28;20441;-70
2023/03/11 11:03:46;;;;;;;5.33;1.20;;;;;;;14.66;26.11;96747.06;5038850;28;20554;-70
2023/03/11 11:06:22;;;;;;;4.30;2.27;;;;;;;15.05;26.04;96747.59;5047833;28;20930;-70
2023/03/11 11:08:47;;;;;;;4.70;1.50;;;;;;;15.03;25.39;96749.59;5033385;28;20430;-69
2023/03/11 11:11:22;;;;;;;7.90;1.30;;;;;;;14.56;25.71;96757.06;5054848;28;20816;-70
2023/03/11 11:13:59;;;;;;;5.60;1.17;;;;;;;14.42;25.57;96754.34;5063321;28;20187;-70
2023/03/11 11:16:25;;;;;;;3.93;1.30;;;;;;;14.06;25.59;96749.88;5057427;28;20421;-71
2023/03/11 11:19:23;;;;;;;4.40;2.33;;;;;;;13.94;30.91;96752.19;5044515;28;20437;-70
2023/03/11 11:21:51;;;;;;;3.70;1.73;;;;;;;14.38;28.49;96752.25;5027509;28;20935;-70
2023/03/11 11:24:21;;;;;;;4.27;1.50;;;;;;;14.46;26.52;96743.41;5042523;28;20544;-70
2023/03/11 11:27:16;;;;;;;4.67;1.50;;;;;;;14.58;26.39;96748.00;5046029;28;20464;-70
2023/03/11 11:29:41;;;;;;;3.87;1.13;;;;;;;14.47;26.57;96751.13;5037175;28;20470;-71
2023/03/11 11:32:26;;;;;;;2.80;1.33;;;;;;;14.51;26.03;96747.09;5035799;28;20445;-70
2023/03/11 11:35:00;;;;;;;3.23;1.93;;;;;;;14.42;26.40;96748.22;5040740;28;20215;-70
2023/03/11 11:37:30;;;;;;;1.60;1.07;;;;;;;14.18;25.76;96750.22;5043047;28;20424;-69
2023/03/11 11:40:10;;;;;;;4.97;1.20;;;;;;;14.02;26.46;96758.34;5044459;28;20465;-70
2023/03/11 11:42:37;;;;;;;7.80;1.30;;;;;;;14.23;26.14;96749.66;5053796;28;20468;-69